createdAt,value
2023-04-02T00:00:09.509Z,99351.43
2023-04-02T00:03:09.729Z,99346.22
2023-04-02T00:05:50.262Z,99354.05
2023-04-02T00:08:44.195Z,99351.75
2023-04-02T00:11:12.927Z,99358.77
2023-04-02T00:13:44.925Z,99356.57
2023-04-02T00:16:13.702Z,99362.43
2023-04-02T00:18:45.259Z,99362.71
2023-04-02T00:21:20.502Z,99365.41
2023-04-02T00:23:48.448Z,99365.52
2023-04-02T00:26:32.150Z,99370.36
2023-04-02T00:29:00.903Z,99370.09
2023-04-02T00:31:29.323Z,99372.49
2023-04-02T00:33:58.226Z,99374.13
2023-04-02T00:36:30.031Z,99378.18
2023-04-02T00:38:59.524Z,99377.65
2023-04-02T00:41:30.590Z,99380.98
2023-04-02T00:43:59.654Z,99382.63
2023-04-02T00:46:30.551Z,99385.14
2023-04-02T00:49:01.408Z,99391.73
2023-04-02T00:51:36.859Z,99391.98
2023-04-02T00:54:06.485Z,99397.02
2023-04-02T00:56:42.547Z,99394.23
2023-04-02T00:59:19.311Z,99403.62
2023-04-02T01:01:54.198Z,99405.02
2023-04-02T01:04:38.087Z,99408.92
2023-04-02T01:07:07.537Z,99416.45
2023-04-02T01:09:38.434Z,99417.84
2023-04-02T01:12:32.548Z,99418.98
2023-04-02T01:15:16.146Z,99418.56
2023-04-02T01:17:54.504Z,99420.73
2023-04-02T01:20:39.319Z,99421.66
2023-04-02T01:23:21.548Z,99424.55
2023-04-02T01:26:05.522Z,99431.77
2023-04-02T01:28:49.222Z,99430.98
2023-04-02T01:31:17.541Z,99431.55
2023-04-02T01:33:45.363Z,99430.26
2023-04-02T01:36:16.224Z,99434.45
2023-04-02T01:38:48.882Z,99435.05
2023-04-02T01:41:30.080Z,99442.12
2023-04-02T01:44:05.948Z,99442.79
2023-04-02T01:46:34.797Z,99445.66
2023-04-02T01:49:04.109Z,99449.17
2023-04-02T01:51:33.432Z,99452.41
2023-04-02T01:54:03.985Z,99453.38
2023-04-02T01:56:32.107Z,99457.71
2023-04-02T01:59:01.246Z,99461.10
2023-04-02T02:01:34.647Z,99464.29
2023-04-02T02:04:02.614Z,99468.99
2023-04-02T02:06:31.269Z,99468.37
2023-04-02T02:09:04.155Z,99475.84
2023-04-02T02:11:33.465Z,99478.20
2023-04-02T02:14:02.141Z,99479.29
2023-04-02T02:16:31.909Z,99486.33
2023-04-02T02:19:01.578Z,99486.96
2023-04-02T02:21:45.207Z,99492.17
2023-04-02T02:24:28.853Z,99495.44
2023-04-02T02:27:16.776Z,99502.02
2023-04-02T02:29:46.897Z,99501.11
2023-04-02T02:32:16.448Z,99504.86
2023-04-02T02:34:48.081Z,99505.98
2023-04-02T02:37:23.203Z,99509.88
2023-04-02T02:39:56.706Z,99515.04
2023-04-02T02:42:44.917Z,99509.11
2023-04-02T02:45:15.997Z,99506.96
2023-04-02T02:47:45.016Z,99516.30
2023-04-02T02:50:18.899Z,99513.77
2023-04-02T02:52:50.354Z,99520.79
2023-04-02T02:55:19.865Z,99522.05
2023-04-02T02:58:07.367Z,99524.97
2023-04-02T03:00:42.094Z,99529.15
2023-04-02T03:03:12.859Z,99531.88
2023-04-02T03:05:41.643Z,99535.46
2023-04-02T03:08:19.523Z,99538.23
2023-04-02T03:10:53.670Z,99538.86
2023-04-02T03:13:28.282Z,99547.02
2023-04-02T03:15:59.019Z,99547.41
2023-04-02T03:18:33.349Z,99551.54
2023-04-02T03:21:21.443Z,99554.52
2023-04-02T03:23:53.773Z,99553.89
2023-04-02T03:26:24.755Z,99556.90
2023-04-02T03:29:09.338Z,99557.09
2023-04-02T03:31:54.334Z,99560.64
2023-04-02T03:34:29.571Z,99564.67
2023-04-02T03:37:13.715Z,99567.24
2023-04-02T03:39:47.405Z,99572.63
2023-04-02T03:42:15.512Z,99572.10
2023-04-02T03:44:47.755Z,99581.17
2023-04-02T03:47:25.011Z,99586.36
2023-04-02T03:50:06.562Z,99592.61
2023-04-02T03:52:36.889Z,99599.13
2023-04-02T03:55:25.880Z,99599.95
2023-04-02T03:57:56.552Z,99603.16
2023-04-02T04:00:46.184Z,99603.86
2023-04-02T04:03:16.273Z,99610.61
2023-04-02T04:05:48.406Z,99615.14
2023-04-02T04:08:18.945Z,99616.88
2023-04-02T04:10:50.754Z,99621.16
2023-04-02T04:13:24.249Z,99627.30
2023-04-02T04:15:56.366Z,99631.41
2023-04-02T04:18:40.018Z,99640.17
2023-04-02T04:21:13.545Z,99640.89
2023-04-02T04:23:50.312Z,99645.45
2023-04-02T04:26:34.882Z,99646.64
2023-04-02T04:29:05.695Z,99646.67
2023-04-02T04:31:38.855Z,99648.18
2023-04-02T04:34:23.356Z,99652.82
2023-04-02T04:37:01.473Z,99652.77
2023-04-02T04:39:47.480Z,99651.30
2023-04-02T04:42:21.504Z,99658.70
2023-04-02T04:45:00.908Z,99660.07
2023-04-02T04:47:33.215Z,99664.27
2023-04-02T04:50:06.280Z,99667.48
2023-04-02T04:52:38.414Z,99670.61
2023-04-02T04:55:22.203Z,99668.58
2023-04-02T04:57:51.767Z,99675.45
2023-04-02T05:00:25.713Z,99681.20
2023-04-02T05:03:09.916Z,99685.87
2023-04-02T05:05:38.874Z,99686.02
2023-04-02T05:08:23.997Z,99689.67
2023-04-02T05:11:07.683Z,99696.08
2023-04-02T05:13:38.987Z,99700.64
2023-04-02T05:16:22.845Z,99702.70
2023-04-02T05:18:56.635Z,99705.58
2023-04-02T05:21:40.391Z,99713.92
2023-04-02T05:24:25.434Z,99714.11
2023-04-02T05:26:59.183Z,99717.02
2023-04-02T05:29:43.604Z,99720.77
2023-04-02T05:32:23.150Z,99723.21
2023-04-02T05:34:53.475Z,99722.61
2023-04-02T05:37:23.107Z,99727.27
2023-04-02T05:39:53.729Z,99731.92
2023-04-02T05:42:27.739Z,99733.52
2023-04-02T05:44:59.022Z,99734.38
2023-04-02T05:47:29.288Z,99741.50
2023-04-02T05:50:14.378Z,99747.35
2023-04-02T05:52:48.766Z,99751.38
2023-04-02T05:55:18.409Z,99750.27
2023-04-02T05:58:10.438Z,99756.27
2023-04-02T06:00:39.762Z,99757.13
2023-04-02T06:03:27.060Z,99758.32
2023-04-02T06:05:57.731Z,99769.64
2023-04-02T06:08:38.959Z,99768.42
2023-04-02T06:11:12.174Z,99768.61
2023-04-02T06:13:42.798Z,99774.49
2023-04-02T06:16:15.988Z,99780.30
2023-04-02T06:18:45.442Z,99780.98
2023-04-02T06:21:16.555Z,99780.79
2023-04-02T06:24:02.804Z,99791.47
2023-04-02T06:26:37.822Z,99792.63
2023-04-02T06:29:17.422Z,99797.41
2023-04-02T06:31:52.219Z,99797.95
2023-04-02T06:34:23.301Z,99804.64
2023-04-02T06:36:57.716Z,99805.68
2023-04-02T06:39:27.112Z,99808.94
2023-04-02T06:42:02.100Z,99808.48
2023-04-02T06:44:45.600Z,99821.44
2023-04-02T06:47:26.676Z,99817.60
2023-04-02T06:50:10.649Z,99815.95
2023-04-02T06:52:48.371Z,99828.75
2023-04-02T06:55:32.813Z,99837.48
2023-04-02T06:58:01.032Z,99838.23
2023-04-02T07:00:40.926Z,99839.52
2023-04-02T07:03:21.690Z,99840.46
2023-04-02T07:05:49.613Z,99843.67
2023-04-02T07:08:17.820Z,99851.73
2023-04-02T07:10:46.340Z,99856.91
2023-04-02T07:13:18.561Z,99857.46
2023-04-02T07:15:47.469Z,99863.55
2023-04-02T07:18:23.321Z,99861.71
2023-04-02T07:20:52.091Z,99864.64
2023-04-02T07:23:21.152Z,99870.89
2023-04-02T07:25:50.298Z,99875.38
2023-04-02T07:28:19.170Z,99874.95
2023-04-02T07:30:47.739Z,99881.96
2023-04-02T07:33:16.870Z,99886.66
2023-04-02T07:35:44.758Z,99892.07
2023-04-02T07:38:12.562Z,99899.16
2023-04-02T07:40:40.390Z,99898.58
2023-04-02T07:43:08.562Z,99900.89
2023-04-02T07:45:36.792Z,99904.37
2023-04-02T07:48:09.272Z,99903.65
2023-04-02T07:50:37.260Z,99913.16
2023-04-02T07:53:06.922Z,99914.95
2023-04-02T07:55:34.869Z,99920.48
2023-04-02T07:58:03.129Z,99924.05
2023-04-02T08:00:31.113Z,99925.17
2023-04-02T08:02:58.921Z,99933.70
2023-04-02T08:05:27.771Z,99935.84
2023-04-02T08:07:56.698Z,99938.00
2023-04-02T08:10:24.923Z,99941.53
2023-04-02T08:12:52.976Z,99944.28
2023-04-02T08:15:21.079Z,99947.40
2023-04-02T08:17:49.023Z,99948.69
2023-04-02T08:20:21.411Z,99950.34
2023-04-02T08:22:49.890Z,99950.93
2023-04-02T08:25:17.676Z,99950.92
2023-04-02T08:27:49.548Z,99958.36
2023-04-02T08:30:17.911Z,99958.48
2023-04-02T08:32:45.807Z,99956.75
2023-04-02T08:35:14.825Z,99962.38
2023-04-02T08:37:43.107Z,99964.29
2023-04-02T08:40:19.314Z,99966.33
2023-04-02T08:42:52.729Z,99969.29
2023-04-02T08:45:25.360Z,99975.85
2023-04-02T08:47:55.884Z,99977.15
2023-04-02T08:50:23.642Z,99979.81
2023-04-02T08:52:51.670Z,99979.63
2023-04-02T08:55:25.998Z,99982.73
2023-04-02T08:57:57.536Z,99985.98
2023-04-02T09:00:31.549Z,99986.64
2023-04-02T09:03:02.382Z,99992.48
2023-04-02T09:05:32.989Z,99994.44
2023-04-02T09:08:02.644Z,100000.23
2023-04-02T09:10:42.595Z,100003.32
2023-04-02T09:13:20.478Z,100000.44
2023-04-02T09:15:50.023Z,100004.63
2023-04-02T09:18:19.015Z,100007.15
2023-04-02T09:20:49.194Z,100013.95
2023-04-02T09:23:19.669Z,100021.30
2023-04-02T09:26:03.017Z,100024.80
2023-04-02T09:28:31.846Z,100029.06
2023-04-02T09:31:13.464Z,100030.80
2023-04-02T09:33:45.773Z,100029.20
2023-04-02T09:36:31.096Z,100031.34
2023-04-02T09:39:06.970Z,100038.71
2023-04-02T09:41:36.992Z,100039.58
2023-04-02T09:44:12.676Z,100039.23
2023-04-02T09:46:59.470Z,100041.26
2023-04-02T09:49:29.562Z,100047.17
2023-04-02T09:52:13.291Z,100048.70
2023-04-02T09:54:41.519Z,100051.44
2023-04-02T09:57:21.062Z,100057.50
2023-04-02T10:00:10.260Z,100065.06
2023-04-02T10:02:40.767Z,100067.90
2023-04-02T10:05:39.395Z,100075.27
2023-04-02T10:08:20.309Z,100078.05
2023-04-02T10:10:50.715Z,100078.38
2023-04-02T10:13:22.651Z,100084.21
2023-04-02T10:16:07.320Z,100083.49
2023-04-02T10:18:35.516Z,100089.56
2023-04-02T10:21:04.393Z,100093.81
2023-04-02T10:23:32.338Z,100091.80
2023-04-02T10:26:15.988Z,100099.29
2023-04-02T10:28:59.643Z,100097.75
2023-04-02T10:31:33.463Z,100101.16
2023-04-02T10:34:03.715Z,100104.37
2023-04-02T10:36:43.701Z,100109.70
2023-04-02T10:39:22.035Z,100105.66
2023-04-02T10:41:49.681Z,100107.40
2023-04-02T10:44:36.751Z,100113.13
2023-04-02T10:47:21.587Z,100119.11
2023-04-02T10:49:56.510Z,100123.20
2023-04-02T10:52:27.221Z,100128.98
2023-04-02T10:54:57.204Z,100127.80
2023-04-02T10:57:41.283Z,100131.76
2023-04-02T11:00:12.611Z,100136.71
2023-04-02T11:02:56.771Z,100137.20
2023-04-02T11:05:30.507Z,100145.91
2023-04-02T11:08:04.187Z,100154.23
2023-04-02T11:10:34.221Z,100157.42
2023-04-02T11:13:12.960Z,100162.05
2023-04-02T11:15:41.447Z,100170.39
2023-04-02T11:18:19.867Z,100170.04
2023-04-02T11:20:47.535Z,100179.57
2023-04-02T11:23:17.910Z,100181.73
2023-04-02T11:25:46.654Z,100179.05
2023-04-02T11:28:33.223Z,100181.64
2023-04-02T11:31:02.009Z,100184.44
2023-04-02T11:33:38.243Z,100187.44
2023-04-02T11:36:27.169Z,100189.81
2023-04-02T11:39:04.425Z,100196.53
2023-04-02T11:41:51.472Z,100194.09
2023-04-02T11:44:24.148Z,100193.95
2023-04-02T11:46:52.300Z,100192.95
2023-04-02T11:49:36.550Z,100197.95
2023-04-02T11:52:11.863Z,100196.23
2023-04-02T11:54:40.675Z,100203.34
2023-04-02T11:57:34.820Z,100199.30
2023-04-02T12:00:18.545Z,100206.58
2023-04-02T12:02:46.612Z,100208.65
2023-04-02T12:05:19.518Z,100207.17
2023-04-02T12:07:56.685Z,100211.58
2023-04-02T12:10:28.516Z,100212.80
2023-04-02T12:12:56.156Z,100212.91
2023-04-02T12:15:31.323Z,100215.02
2023-04-02T12:18:11.516Z,100219.98
2023-04-02T12:20:40.378Z,100224.11
2023-04-02T12:23:15.931Z,100226.73
2023-04-02T12:25:46.359Z,100230.98
2023-04-02T12:28:17.945Z,100232.20
2023-04-02T12:30:46.769Z,100235.42
2023-04-02T12:33:16.368Z,100240.02
2023-04-02T12:35:45.259Z,100246.63
2023-04-02T12:38:21.295Z,100247.02
2023-04-02T12:40:53.263Z,100251.88
2023-04-02T12:43:28.522Z,100257.16
2023-04-02T12:45:58.936Z,100258.70
2023-04-02T12:48:27.782Z,100257.40
2023-04-02T12:50:56.302Z,100265.06
2023-04-02T12:53:26.203Z,100262.77
2023-04-02T12:55:54.375Z,100266.09
2023-04-02T12:58:27.228Z,100272.56
2023-04-02T13:01:11.308Z,100274.83
2023-04-02T13:03:39.454Z,100279.70
2023-04-02T13:06:24.017Z,100279.45
2023-04-02T13:08:51.715Z,100279.83
2023-04-02T13:11:19.609Z,100280.63
2023-04-02T13:13:48.643Z,100283.02
2023-04-02T13:16:19.252Z,100285.55
2023-04-02T13:18:48.256Z,100292.52
2023-04-02T13:21:19.478Z,100295.27
2023-04-02T13:23:47.258Z,100301.08
2023-04-02T13:26:19.415Z,100302.52
2023-04-02T13:29:03.141Z,100302.33
2023-04-02T13:31:31.928Z,100303.95
2023-04-02T13:33:59.816Z,100306.55
2023-04-02T13:36:29.376Z,100311.93
2023-04-02T13:38:57.457Z,100314.59
2023-04-02T13:41:27.257Z,100313.17
2023-04-02T13:43:56.630Z,100321.36
2023-04-02T13:46:26.390Z,100324.66
2023-04-02T13:48:55.457Z,100328.10
2023-04-02T13:51:49.581Z,100325.18
2023-04-02T13:54:27.433Z,100332.31
2023-04-02T13:56:55.888Z,100328.23
2023-04-02T13:59:24.208Z,100335.46
2023-04-02T14:01:53.400Z,100335.11
2023-04-02T14:04:24.548Z,100337.48
2023-04-02T14:07:08.320Z,100339.17
2023-04-02T14:09:53.675Z,100340.77
2023-04-02T14:12:28.544Z,100347.73
2023-04-02T14:15:12.358Z,100348.31
2023-04-02T14:18:03.479Z,100354.95
2023-04-02T14:20:49.709Z,100353.45
2023-04-02T14:23:18.705Z,100356.16
2023-04-02T14:25:49.321Z,100359.51
2023-04-02T14:28:26.756Z,100362.82
2023-04-02T14:30:59.608Z,100361.91
2023-04-02T14:33:30.308Z,100361.94
2023-04-02T14:36:05.480Z,100372.05
2023-04-02T14:38:40.479Z,100375.74
2023-04-02T14:41:14.256Z,100371.72
2023-04-02T14:43:46.373Z,100378.77
2023-04-02T14:46:14.099Z,100381.76
2023-04-02T14:48:51.211Z,100378.70
2023-04-02T14:51:22.257Z,100385.36
2023-04-02T14:54:06.025Z,100382.77
2023-04-02T14:56:38.251Z,100393.28
2023-04-02T14:59:06.123Z,100399.29
2023-04-02T15:01:37.926Z,100397.36
2023-04-02T15:04:27.877Z,100399.27
2023-04-02T15:07:01.204Z,100406.73
2023-04-02T15:09:35.732Z,100416.59
2023-04-02T15:12:07.224Z,100406.25
2023-04-02T15:14:44.346Z,100413.98
2023-04-02T15:17:12.619Z,100416.21
2023-04-02T15:19:40.310Z,100419.36
2023-04-02T15:22:23.987Z,100419.05
2023-04-02T15:25:07.602Z,100421.93
2023-04-02T15:27:41.429Z,100427.01
2023-04-02T15:30:15.446Z,100433.79
2023-04-02T15:32:43.495Z,100443.84
2023-04-02T15:35:27.314Z,100446.20
2023-04-02T15:38:11.034Z,100459.68
2023-04-02T15:40:54.954Z,100455.66
2023-04-02T15:43:22.594Z,100460.75
2023-04-02T15:45:53.140Z,100465.63
2023-04-02T15:48:31.584Z,100472.02
2023-04-02T15:51:13.243Z,100466.42
2023-04-02T15:53:45.840Z,100474.41
2023-04-02T15:56:42.766Z,100483.48
2023-04-02T15:59:13.512Z,100482.45
2023-04-02T16:01:52.541Z,100485.18
2023-04-02T16:04:23.093Z,100483.11
2023-04-02T16:06:59.236Z,100490.59
2023-04-02T16:09:28.078Z,100498.34
2023-04-02T16:11:59.691Z,100495.67
2023-04-02T16:14:29.343Z,100501.60
2023-04-02T16:17:02.307Z,100502.75
2023-04-02T16:19:36.209Z,100504.75
2023-04-02T16:22:09.987Z,100500.21
2023-04-02T16:24:38.005Z,100504.95
2023-04-02T16:27:21.616Z,100498.58
2023-04-02T16:29:55.960Z,100505.61
2023-04-02T16:32:39.607Z,100507.77
2023-04-02T16:35:38.182Z,100512.61
2023-04-02T16:38:13.822Z,100517.88
2023-04-02T16:41:08.748Z,100521.72
2023-04-02T16:43:53.028Z,100521.49
2023-04-02T16:46:40.386Z,100527.09
2023-04-02T16:49:23.391Z,100526.48
2023-04-02T16:51:54.606Z,100526.61
2023-04-02T16:54:27.744Z,100535.98
2023-04-02T16:57:15.717Z,100542.25
2023-04-02T16:59:50.313Z,100543.13
2023-04-02T17:02:34.202Z,100553.90
2023-04-02T17:05:18.370Z,100557.95
2023-04-02T17:07:52.942Z,100565.23
2023-04-02T17:10:36.950Z,100569.11
2023-04-02T17:13:31.382Z,100572.59
2023-04-02T17:16:05.804Z,100580.09
2023-04-02T17:18:34.741Z,100581.25
2023-04-02T17:21:05.644Z,100582.45
2023-04-02T17:23:49.452Z,100582.92
2023-04-02T17:26:27.211Z,100592.02
2023-04-02T17:28:57.362Z,100587.34
2023-04-02T17:31:26.797Z,100597.40
2023-04-02T17:33:54.675Z,100604.61
2023-04-02T17:36:22.832Z,100610.05
2023-04-02T17:39:06.452Z,100610.34
2023-04-02T17:41:37.243Z,100622.29
2023-04-02T17:44:11.034Z,100620.02
2023-04-02T17:46:43.777Z,100633.02
2023-04-02T17:49:11.712Z,100633.07
2023-04-02T17:51:44.050Z,100634.42
2023-04-02T17:54:29.917Z,100639.26
2023-04-02T17:56:57.850Z,100642.53
2023-04-02T17:59:37.842Z,100644.69
2023-04-02T18:02:05.986Z,100653.31
2023-04-02T18:04:33.760Z,100659.48
2023-04-02T18:07:01.720Z,100663.80
2023-04-02T18:09:35.906Z,100667.31
2023-04-02T18:12:06.842Z,100669.05
2023-04-02T18:14:40.554Z,100670.77
2023-04-02T18:17:28.758Z,100673.59
2023-04-02T18:19:59.406Z,100682.27
2023-04-02T18:22:43.005Z,100681.18
2023-04-02T18:25:19.865Z,100683.92
2023-04-02T18:27:56.882Z,100692.45
2023-04-02T18:30:34.757Z,100693.79
2023-04-02T18:33:10.988Z,100694.61
2023-04-02T18:35:54.641Z,100701.73
2023-04-02T18:38:38.554Z,100704.79
2023-04-02T18:41:12.585Z,100708.05
2023-04-02T18:43:43.637Z,100712.30
2023-04-02T18:46:11.319Z,100715.73
2023-04-02T18:48:42.342Z,100723.92
2023-04-02T18:51:14.481Z,100728.54
2023-04-02T18:53:43.347Z,100729.96
2023-04-02T18:56:13.457Z,100730.43
2023-04-02T18:58:49.225Z,100736.31
2023-04-02T19:01:21.231Z,100742.46
2023-04-02T19:03:51.359Z,100749.20
2023-04-02T19:06:26.177Z,100753.15
2023-04-02T19:08:57.536Z,100755.88
2023-04-02T19:11:29.613Z,100756.80
2023-04-02T19:14:01.877Z,100770.96
2023-04-02T19:16:34.730Z,100773.44
2023-04-02T19:19:05.547Z,100775.15
2023-04-02T19:21:49.486Z,100778.99
2023-04-02T19:24:17.377Z,100784.20
2023-04-02T19:27:01.538Z,100782.64
2023-04-02T19:29:32.222Z,100787.80
2023-04-02T19:32:03.345Z,100787.84
2023-04-02T19:34:47.017Z,100788.98
2023-04-02T19:37:18.065Z,100791.02
2023-04-02T19:39:52.021Z,100795.45
2023-04-02T19:42:35.850Z,100799.80
2023-04-02T19:45:03.792Z,100800.99
2023-04-02T19:47:31.668Z,100804.21
2023-04-02T19:49:59.428Z,100808.05
2023-04-02T19:52:27.292Z,100809.87
2023-04-02T19:54:55.012Z,100814.36
2023-04-02T19:57:22.958Z,100816.35
2023-04-02T19:59:50.910Z,100816.44
2023-04-02T20:02:18.612Z,100828.52
2023-04-02T20:04:46.343Z,100827.54
2023-04-02T20:07:13.993Z,100832.30
2023-04-02T20:09:41.887Z,100836.43
2023-04-02T20:12:09.615Z,100835.65
2023-04-02T20:14:37.357Z,100848.48
2023-04-02T20:17:05.155Z,100844.29
2023-04-02T20:19:32.986Z,100847.95
2023-04-02T20:22:00.674Z,100855.63
2023-04-02T20:24:28.368Z,100859.58
2023-04-02T20:26:56.065Z,100861.91
2023-04-02T20:29:27.674Z,100862.45
2023-04-02T20:31:55.326Z,100864.98
2023-04-02T20:34:23.202Z,100861.27
2023-04-02T20:36:50.932Z,100872.46
2023-04-02T20:39:20.176Z,100869.80
2023-04-02T20:41:48.140Z,100877.15
2023-04-02T20:44:16.109Z,100875.13
2023-04-02T20:46:43.812Z,100877.48
2023-04-02T20:49:11.946Z,100886.62
2023-04-02T20:51:39.585Z,100889.24
2023-04-02T20:54:07.266Z,100892.39
2023-04-02T20:56:34.999Z,100896.38
2023-04-02T20:59:02.650Z,100899.14
2023-04-02T21:01:30.750Z,100906.83
2023-04-02T21:04:00.220Z,100907.05
2023-04-02T21:06:29.786Z,100914.03
2023-04-02T21:08:57.751Z,100916.44
2023-04-02T21:11:26.077Z,100922.67
2023-04-02T21:13:53.885Z,100924.74
2023-04-02T21:16:23.325Z,100925.51
2023-04-02T21:18:52.844Z,100929.52
2023-04-02T21:21:21.354Z,100932.45
2023-04-02T21:23:53.333Z,100934.73
2023-04-02T21:26:21.646Z,100931.11
2023-04-02T21:28:49.381Z,100935.36
2023-04-02T21:31:18.619Z,100937.23
2023-04-02T21:33:47.544Z,100934.09
2023-04-02T21:36:16.631Z,100936.59
2023-04-02T21:38:45.488Z,100935.77
2023-04-02T21:41:14.356Z,100938.56
2023-04-02T21:43:42.495Z,100940.79
2023-04-02T21:46:10.332Z,100943.20
2023-04-02T21:48:38.286Z,100941.90
2023-04-02T21:51:11.013Z,100946.29
2023-04-02T21:53:39.235Z,100950.95
2023-04-02T21:56:08.532Z,100950.85
2023-04-02T21:58:36.314Z,100952.70
2023-04-02T22:01:07.091Z,100951.47
2023-04-02T22:03:37.254Z,100955.26
2023-04-02T22:06:05.079Z,100954.48
2023-04-02T22:08:33.923Z,100955.81
2023-04-02T22:11:06.012Z,100957.02
2023-04-02T22:13:34.122Z,100964.48
2023-04-02T22:16:10.857Z,100967.72
2023-04-02T22:18:39.215Z,100969.73
2023-04-02T22:21:07.104Z,100974.34
2023-04-02T22:23:34.794Z,100976.52
2023-04-02T22:26:03.230Z,100981.06
2023-04-02T22:28:31.627Z,100981.39
2023-04-02T22:31:05.421Z,100981.61
2023-04-02T22:33:33.864Z,100984.56
2023-04-02T22:36:02.055Z,100987.98
2023-04-02T22:38:30.351Z,100989.39
2023-04-02T22:41:04.184Z,100990.39
2023-04-02T22:43:31.920Z,100986.69
2023-04-02T22:45:59.717Z,100987.98
2023-04-02T22:48:27.991Z,100988.77
2023-04-02T22:50:55.854Z,100989.89
2023-04-02T22:53:23.907Z,100994.70
2023-04-02T22:55:52.707Z,100991.61
2023-04-02T22:58:20.489Z,100992.17
2023-04-02T23:00:48.469Z,100993.96
2023-04-02T23:03:16.193Z,100992.30
2023-04-02T23:05:46.941Z,100999.00
2023-04-02T23:08:14.654Z,100997.28
2023-04-02T23:10:42.290Z,101003.05
2023-04-02T23:13:10.651Z,101002.41
2023-04-02T23:15:38.379Z,101005.52
2023-04-02T23:18:06.167Z,101007.34
2023-04-02T23:20:34.053Z,101002.52
2023-04-02T23:23:01.989Z,101003.87
2023-04-02T23:25:29.625Z,101005.33
2023-04-02T23:27:57.346Z,101005.17
2023-04-02T23:30:25.021Z,101007.17
2023-04-02T23:32:52.749Z,101008.00
2023-04-02T23:35:20.464Z,101007.23
2023-04-02T23:37:49.119Z,101007.33
2023-04-02T23:40:17.103Z,101004.42
2023-04-02T23:42:44.792Z,101007.94
2023-04-02T23:45:12.549Z,101009.19
2023-04-02T23:47:40.389Z,101011.20
2023-04-02T23:50:08.346Z,101013.59
2023-04-02T23:52:36.136Z,101010.61
2023-04-02T23:55:04.108Z,101017.68
2023-04-02T23:57:31.887Z,101013.64
2023-04-02T23:59:59.795Z,101015.85
